Time;durP1;ratioP1;P1;durP2;ratioP2;P2;SDS_P1;SDS_P2;PMS_P1;PMS_P2;Temp;Humidity;BMP_temperature;BMP_pressure;BME280_temperature;BME280_humidity;BME280_pressure;Samples;Min_cycle;Max_cycle;Signal;HPM_P1;HPM_P2
2022/05/18 00:01:48;;;;;;;22.55;14.25;;;;;;;17.66;72.97;101750.31;5071501;28;20036;-62
2022/05/18 00:04:13;;;;;;;21.08;13.85;;;;;;;17.66;73.00;101747.53;5071511;28;20021;-62
2022/05/18 00:06:38;;;;;;;22.27;14.57;;;;;;;17.59;73.36;101748.03;5071391;28;20024;-62
2022/05/18 00:09:04;;;;;;;22.75;15.00;;;;;;;17.54;73.93;101747.38;5073697;28;20032;-62
2022/05/18 00:11:31;;;;;;;21.52;14.70;;;;;;;17.55;74.23;101746.22;5074811;28;20447;-62
2022/05/18 00:13:57;;;;;;;23.10;14.98;;;;;;;17.51;74.35;101750.84;5074857;28;20086;-62
2022/05/18 00:16:23;;;;;;;20.73;14.00;;;;;;;17.47;74.20;101753.50;5074639;28;20409;-63
2022/05/18 00:18:50;;;;;;;21.77;14.38;;;;;;;17.38;74.42;101756.28;5074229;28;20584;-62
2022/05/18 00:21:15;;;;;;;22.15;14.88;;;;;;;17.30;74.86;101749.53;5074559;28;20127;-62
2022/05/18 00:23:40;;;;;;;21.92;14.43;;;;;;;17.27;75.00;101753.03;5074171;28;20094;-62
2022/05/18 00:26:07;;;;;;;21.90;15.07;;;;;;;17.28;74.98;101754.66;5074491;28;20113;-62
2022/05/18 00:28:33;;;;;;;22.10;14.60;;;;;;;17.21;75.35;101753.50;5074240;28;20032;-63
2022/05/18 00:30:59;;;;;;;23.00;15.63;;;;;;;17.20;74.95;101752.66;5074752;28;20123;-63
2022/05/18 00:33:25;;;;;;;21.60;14.88;;;;;;;17.15;75.13;101759.25;5073900;28;20028;-63
2022/05/18 00:35:50;;;;;;;22.42;15.02;;;;;;;17.09;75.54;101759.78;5074285;28;20371;-62
2022/05/18 00:38:16;;;;;;;21.30;14.48;;;;;;;17.11;75.39;101758.28;5074935;28;20027;-62
2022/05/18 00:40:45;;;;;;;21.77;14.93;;;;;;;17.07;75.43;101756.47;5075188;28;20032;-62
2022/05/18 00:43:34;;;;;;;21.45;14.63;;;;;;;17.04;75.42;101751.53;5075042;28;20028;-63
2022/05/18 00:46:03;;;;;;;22.23;14.70;;;;;;;16.88;75.61;101735.22;5074636;28;20028;-63
2022/05/18 00:48:28;;;;;;;21.75;15.18;;;;;;;16.95;75.55;101749.56;5074874;28;20102;-62
2022/05/18 00:50:58;;;;;;;21.60;14.88;;;;;;;16.90;75.98;101746.91;5073509;28;20028;-62
2022/05/18 00:53:31;;;;;;;24.27;15.35;;;;;;;16.83;76.09;101755.78;5074442;28;20052;-62
2022/05/18 00:56:12;;;;;;;24.52;15.77;;;;;;;16.79;76.17;101753.94;5074194;28;20036;-62
2022/05/18 00:58:40;;;;;;;22.65;15.02;;;;;;;16.69;77.11;101761.50;5072595;28;20036;-63
2022/05/18 01:01:07;;;;;;;22.10;14.95;;;;;;;16.61;77.22;101755.88;5073735;28;20420;-62
2022/05/18 01:03:36;;;;;;;23.58;15.77;;;;;;;16.63;77.21;101754.41;5073566;28;20021;-62
2022/05/18 01:06:17;;;;;;;21.73;15.02;;;;;;;16.55;76.65;101751.59;5073958;28;20074;-63
2022/05/18 01:09:06;;;;;;;23.17;16.55;;;;;;;16.56;77.47;101768.03;5073818;28;20446;-62
2022/05/18 01:11:34;;;;;;;22.48;15.88;;;;;;;16.46;78.61;101768.31;5073920;28;20082;-62
2022/05/18 01:14:00;;;;;;;24.88;15.68;;;;;;;16.32;78.49;101760.06;5074340;28;20028;-64
2022/05/18 01:16:26;;;;;;;24.02;15.40;;;;;;;16.34;78.65;101769.75;5073705;28;20074;-63
2022/05/18 01:18:53;;;;;;;22.33;15.43;;;;;;;16.31;78.43;101759.25;5073670;28;20063;-62
2022/05/18 01:21:19;;;;;;;23.88;15.45;;;;;;;16.31;78.61;101767.63;5073843;28;20124;-62
2022/05/18 01:23:59;;;;;;;23.48;15.70;;;;;;;16.30;78.83;101767.94;5073536;28;20144;-63
2022/05/18 01:26:45;;;;;;;24.02;16.05;;;;;;;16.25;78.62;101754.94;5071778;28;20089;-62
2022/05/18 01:29:11;;;;;;;24.55;15.65;;;;;;;16.16;79.37;101759.69;5073273;28;20028;-62
2022/05/18 01:31:42;;;;;;;21.75;15.10;;;;;;;16.21;78.95;101765.13;5072851;28;20429;-62
2022/05/18 01:34:07;;;;;;;22.40;15.40;;;;;;;16.16;78.85;101752.16;5072817;28;20036;-62
2022/05/18 01:36:33;;;;;;;22.83;15.52;;;;;;;16.15;79.14;101767.25;5072689;28;20024;-62
2022/05/18 01:38:59;;;;;;;22.40;15.13;;;;;;;16.14;78.95;101757.22;5072783;28;20107;-63
2022/05/18 01:41:28;;;;;;;22.58;16.08;;;;;;;16.17;79.03;101764.97;5072744;28;20029;-62
2022/05/18 01:43:56;;;;;;;21.42;15.13;;;;;;;16.10;79.01;101755.41;5073312;28;20456;-62
2022/05/18 01:46:22;;;;;;;21.70;15.50;;;;;;;16.16;79.01;101763.31;5073418;28;20056;-63
2022/05/18 01:48:52;;;;;;;25.95;15.93;;;;;;;16.14;79.13;101762.81;5072535;28;20063;-62
2022/05/18 01:51:27;;;;;;;22.25;16.00;;;;;;;16.18;78.74;101768.56;5073202;28;20115;-63
2022/05/18 01:53:53;;;;;;;21.63;15.40;;;;;;;16.12;78.92;101769.84;5072825;28;20051;-62
2022/05/18 01:56:18;;;;;;;22.60;15.20;;;;;;;16.05;79.15;101751.63;5072853;28;20456;-62
2022/05/18 01:58:43;;;;;;;30.20;15.50;;;;;;;16.00;79.21;101757.31;5072695;28;20078;-62
2022/05/18 02:01:08;;;;;;;24.08;17.08;;;;;;;15.99;79.40;101761.25;5071686;28;20100;-62
2022/05/18 02:03:34;;;;;;;23.30;16.50;;;;;;;15.91;79.96;101756.47;5072966;28;20016;-63
2022/05/18 02:05:59;;;;;;;23.67;16.27;;;;;;;15.90;80.21;101760.38;5073019;28;20039;-62
2022/05/18 02:08:25;;;;;;;21.35;15.45;;;;;;;15.91;80.15;101756.47;5072508;28;20020;-62
2022/05/18 02:10:51;;;;;;;23.05;15.98;;;;;;;15.83;80.38;101765.56;5072794;28;20029;-62
2022/05/18 02:13:17;;;;;;;23.05;15.48;;;;;;;15.81;80.47;101763.13;5072799;28;20028;-62
2022/05/18 02:15:42;;;;;;;21.98;15.20;;;;;;;15.77;80.80;101766.88;5072318;28;20060;-62
2022/05/18 02:18:08;;;;;;;23.90;16.75;;;;;;;15.68;81.15;101761.22;5071949;28;20067;-63
2022/05/18 02:20:34;;;;;;;23.75;16.00;;;;;;;15.65;81.51;101764.63;5070641;28;20036;-62
2022/05/18 02:23:00;;;;;;;23.10;15.65;;;;;;;15.58;81.35;101757.56;5070538;28;20071;-63
2022/05/18 02:25:26;;;;;;;24.58;15.73;;;;;;;15.62;81.62;101754.94;5072013;28;20172;-62
2022/05/18 02:27:51;;;;;;;23.80;15.68;;;;;;;15.60;81.38;101762.81;5072322;28;20049;-62
2022/05/18 02:30:17;;;;;;;23.77;16.23;;;;;;;15.57;81.29;101750.31;5071824;28;20036;-61
2022/05/18 02:32:42;;;;;;;22.25;15.02;;;;;;;15.60;81.26;101749.69;5072134;28;20040;-62
2022/05/18 02:35:08;;;;;;;23.92;15.70;;;;;;;15.58;81.02;101751.16;5071627;28;20107;-62
2022/05/18 02:37:34;;;;;;;22.17;15.32;;;;;;;15.58;81.31;101753.94;5072326;28;20032;-62
2022/05/18 02:40:00;;;;;;;22.27;15.93;;;;;;;15.55;81.62;101740.63;5072380;28;20345;-61
2022/05/18 02:42:25;;;;;;;23.30;15.73;;;;;;;15.53;81.67;101746.53;5072600;28;20036;-61
2022/05/18 02:44:51;;;;;;;24.30;16.20;;;;;;;15.52;81.40;101747.69;5072412;28;20043;-61
2022/05/18 02:47:17;;;;;;;25.38;16.40;;;;;;;15.54;81.34;101755.72;5071781;28;20025;-61
2022/05/18 02:49:43;;;;;;;24.75;16.20;;;;;;;15.45;82.21;101755.66;5071792;28;20021;-62
2022/05/18 02:52:08;;;;;;;23.80;16.50;;;;;;;15.50;82.14;101751.91;5071831;28;20130;-61
2022/05/18 02:57:19;;;;;;;22.58;15.43;;;;;;;15.49;82.06;101747.50;5071703;28;20372;-61
2022/05/18 02:59:46;;;;;;;25.60;17.48;;;;;;;15.39;82.68;101742.97;5071858;28;20025;-62
2022/05/18 03:02:12;;;;;;;23.30;16.17;;;;;;;15.46;82.95;101748.13;5071789;28;20060;-61
2022/05/18 03:04:37;;;;;;;24.52;16.42;;;;;;;15.43;82.88;101753.19;5072080;28;20063;-61
2022/05/18 03:07:04;;;;;;;24.63;16.95;;;;;;;15.47;82.74;101756.16;5071460;28;20111;-62
2022/05/18 03:09:29;;;;;;;25.10;16.50;;;;;;;15.48;82.36;101760.59;5071580;28;20093;-61
2022/05/18 03:11:55;;;;;;;24.75;16.25;;;;;;;15.49;82.68;101762.25;5071312;28;20029;-64
2022/05/18 03:14:20;;;;;;;23.85;16.13;;;;;;;15.49;82.82;101759.47;5071298;28;20024;-62
2022/05/18 03:16:46;;;;;;;23.60;16.30;;;;;;;15.50;82.46;101752.75;5071271;28;20456;-62
2022/05/18 03:19:12;;;;;;;24.83;16.13;;;;;;;15.42;82.81;101747.94;5071148;28;20119;-64
2022/05/18 03:24:21;;;;;;;27.92;16.92;;;;;;;15.46;83.38;101774.03;5071459;28;20086;-62
2022/05/18 03:26:46;;;;;;;22.75;16.60;;;;;;;15.44;83.22;101779.13;5071374;28;20048;-62
2022/05/18 03:29:12;;;;;;;25.70;17.25;;;;;;;15.32;83.41;101762.94;5071133;28;20036;-62
2022/05/18 03:31:37;;;;;;;27.48;17.02;;;;;;;15.39;83.60;101777.28;5071222;28;20056;-62
2022/05/18 03:34:03;;;;;;;23.08;16.73;;;;;;;15.36;84.10;101785.44;5070954;28;20089;-62
2022/05/18 03:36:29;;;;;;;28.15;16.98;;;;;;;15.35;83.83;101789.38;5071327;28;20107;-62
2022/05/18 03:38:55;;;;;;;25.02;16.63;;;;;;;15.31;84.09;101797.53;5071705;28;20029;-62
2022/05/18 03:41:20;;;;;;;23.88;18.02;;;;;;;15.32;84.58;101788.03;5071927;28;20111;-61
2022/05/18 03:43:46;;;;;;;26.23;17.58;;;;;;;15.35;84.66;101797.75;5074028;28;20434;-61
2022/05/18 03:46:12;;;;;;;22.00;16.30;;;;;;;15.33;84.65;101794.44;5075640;28;20033;-61
2022/05/18 03:48:39;;;;;;;24.98;16.50;;;;;;;15.39;84.92;101805.16;5075205;28;20060;-62
2022/05/18 03:51:06;;;;;;;24.10;17.10;;;;;;;15.46;84.64;101795.53;5075433;28;20049;-61
2022/05/18 03:53:32;;;;;;;25.75;16.17;;;;;;;15.50;84.62;101797.38;5073674;28;20025;-61
2022/05/18 03:55:58;;;;;;;23.60;16.60;;;;;;;15.51;84.39;101796.22;5075293;28;20038;-60
2022/05/18 03:58:24;;;;;;;24.25;16.92;;;;;;;15.59;84.24;101797.41;5075564;28;20059;-62
2022/05/18 04:00:52;;;;;;;24.35;16.58;;;;;;;15.57;83.93;101791.34;5075812;28;20447;-60
2022/05/18 04:03:19;;;;;;;22.17;15.88;;;;;;;15.63;84.15;101800.41;5075156;28;20043;-60
2022/05/18 04:05:45;;;;;;;24.60;16.83;;;;;;;15.69;83.86;101799.94;5074995;28;20320;-61
2022/05/18 04:08:11;;;;;;;23.05;16.88;;;;;;;15.71;84.04;101805.22;5074874;28;20039;-61
2022/05/18 04:10:41;;;;;;;24.35;16.30;;;;;;;15.72;83.72;101807.69;5074679;28;20028;-61
2022/05/18 04:13:11;;;;;;;23.38;16.38;;;;;;;15.77;83.73;101814.28;5075522;28;20037;-60
2022/05/18 04:15:36;;;;;;;25.33;16.83;;;;;;;15.80;83.55;101810.84;5075635;28;20032;-61
2022/05/18 04:18:02;;;;;;;25.08;16.40;;;;;;;15.86;83.82;101815.19;5075332;28;20490;-60
2022/05/18 04:20:28;;;;;;;23.85;16.50;;;;;;;15.87;83.35;101802.91;5075111;28;20033;-61
2022/05/18 04:22:53;;;;;;;25.67;16.88;;;;;;;15.92;83.15;101802.75;5074801;28;20397;-62
2022/05/18 04:25:22;;;;;;;22.98;16.52;;;;;;;15.95;82.84;101798.50;5074106;28;20048;-61
2022/05/18 04:27:47;;;;;;;25.13;17.00;;;;;;;16.08;82.48;101802.34;5074609;28;20036;-61
2022/05/18 04:30:15;;;;;;;24.77;16.67;;;;;;;16.14;82.16;101807.47;5074215;28;20031;-61
2022/05/18 04:32:40;;;;;;;24.48;16.58;;;;;;;16.22;81.98;101798.31;5074784;28;20099;-61
2022/05/18 04:35:08;;;;;;;23.77;16.73;;;;;;;16.26;81.61;101809.66;5074232;28;20452;-62
2022/05/18 04:37:34;;;;;;;25.80;17.10;;;;;;;16.45;81.04;101817.78;5073990;28;20133;-62
2022/05/18 04:39:59;;;;;;;24.13;16.38;;;;;;;16.57;80.56;101819.97;5073611;28;20111;-61
2022/05/18 04:42:24;;;;;;;23.42;16.33;;;;;;;16.71;80.15;101814.25;5074658;28;20056;-61
2022/05/18 04:44:50;;;;;;;24.67;16.73;;;;;;;16.84;79.59;101821.69;5074411;28;20294;-62
2022/05/18 04:47:16;;;;;;;23.63;16.20;;;;;;;16.97;79.25;101821.88;5074644;28;20021;-61
2022/05/18 04:49:42;;;;;;;22.88;16.35;;;;;;;17.08;78.15;101809.25;5074239;28;20028;-62
2022/05/18 04:52:07;;;;;;;24.13;16.00;;;;;;;17.28;77.61;101812.56;5073972;28;20146;-61
2022/05/18 04:54:37;;;;;;;23.08;15.27;;;;;;;17.41;76.94;101810.75;5073444;28;20115;-63
2022/05/18 04:57:03;;;;;;;24.05;15.73;;;;;;;17.61;76.95;101812.88;5074648;28;20059;-61
2022/05/18 04:59:29;;;;;;;21.98;15.90;;;;;;;17.70;75.77;101815.66;5074345;28;20016;-62
2022/05/18 05:01:55;;;;;;;24.80;15.25;;;;;;;17.80;75.01;101822.06;5073063;28;20033;-64
2022/05/18 05:04:20;;;;;;;22.40;14.70;;;;;;;17.88;74.77;101835.22;5074305;28;20032;-62
2022/05/18 05:06:46;;;;;;;23.30;15.30;;;;;;;17.95;74.34;101834.72;5072809;28;20064;-62
2022/05/18 05:09:11;;;;;;;22.65;14.85;;;;;;;18.00;73.93;101835.38;5073677;28;20032;-63
2022/05/18 05:11:37;;;;;;;26.33;17.48;;;;;;;18.03;73.75;101840.31;5073994;28;20097;-62
2022/05/18 05:14:02;;;;;;;22.45;15.18;;;;;;;18.08;73.52;101851.34;5072813;28;20024;-63
2022/05/18 05:16:29;;;;;;;22.33;15.43;;;;;;;18.06;73.12;101847.22;5073008;28;20021;-62
2022/05/18 05:18:55;;;;;;;23.70;15.82;;;;;;;18.01;72.87;101841.81;5074282;28;20123;-63
2022/05/18 05:21:20;;;;;;;21.85;15.65;;;;;;;18.07;72.95;101849.72;5073827;28;20145;-61
2022/05/18 05:23:46;;;;;;;23.33;15.38;;;;;;;18.13;73.26;101844.75;5074136;28;20051;-61
2022/05/18 05:26:13;;;;;;;22.98;14.70;;;;;;;18.24;72.75;101842.41;5073011;28;20095;-62
2022/05/18 05:28:39;;;;;;;22.65;14.95;;;;;;;18.45;71.83;101850.88;5073405;28;20025;-61
2022/05/18 05:31:06;;;;;;;22.58;14.70;;;;;;;18.61;71.16;101837.13;5073219;28;20032;-62
2022/05/18 05:33:33;;;;;;;21.90;14.23;;;;;;;18.95;70.62;101857.75;5073549;28;20399;-62
2022/05/18 05:35:59;;;;;;;22.00;13.80;;;;;;;19.18;69.02;101857.44;5072843;28;20035;-62
2022/05/18 05:38:25;;;;;;;22.02;14.10;;;;;;;19.38;68.03;101847.38;5073366;28;20025;-62
2022/05/18 05:40:50;;;;;;;20.90;12.90;;;;;;;19.51;67.12;101845.47;5073125;28;20028;-62
2022/05/18 05:43:17;;;;;;;21.05;13.60;;;;;;;19.69;66.66;101856.56;5072500;28;20055;-62
2022/05/18 05:45:42;;;;;;;20.25;13.20;;;;;;;19.76;66.23;101849.19;5072716;28;20032;-61
2022/05/18 05:48:09;;;;;;;20.20;13.48;;;;;;;19.77;66.26;101852.84;5072475;28;20032;-61
2022/05/18 05:50:35;;;;;;;20.40;14.13;;;;;;;19.76;65.77;101854.81;5072432;28;20285;-61
2022/05/18 05:53:01;;;;;;;21.92;13.40;;;;;;;19.74;65.33;101868.38;5072493;28;20463;-61
2022/05/18 05:55:27;;;;;;;21.48;14.60;;;;;;;19.74;65.72;101859.13;5072616;28;20090;-61
2022/05/18 05:57:54;;;;;;;21.00;13.25;;;;;;;19.68;65.84;101864.13;5072437;28;20040;-61
2022/05/18 06:00:20;;;;;;;20.30;13.10;;;;;;;19.68;65.83;101878.19;5073026;28;20020;-61
2022/05/18 06:02:45;;;;;;;21.05;13.00;;;;;;;19.70;65.65;101878.66;5072373;28;20052;-62
2022/05/18 06:05:12;;;;;;;21.08;13.70;;;;;;;19.69;65.91;101876.22;5072307;28;20067;-63
2022/05/18 06:07:37;;;;;;;21.85;13.20;;;;;;;19.79;66.47;101872.94;5070953;28;20111;-61
2022/05/18 06:10:03;;;;;;;21.15;13.45;;;;;;;19.88;65.09;101875.72;5072566;28;20468;-61
2022/05/18 06:12:28;;;;;;;21.92;13.10;;;;;;;19.97;64.79;101873.63;5073256;28;20024;-61
2022/05/18 06:14:59;;;;;;;20.85;13.43;;;;;;;20.09;64.42;101881.28;5072168;28;20071;-62
2022/05/18 06:17:24;;;;;;;21.33;13.85;;;;;;;20.20;64.70;101882.50;5071158;28;20435;-62
2022/05/18 06:19:50;;;;;;;21.70;14.45;;;;;;;20.27;64.19;101885.53;5071381;28;20032;-63
2022/05/18 06:22:15;;;;;;;21.67;14.07;;;;;;;20.41;63.68;101899.25;5070921;28;20349;-62
2022/05/18 06:24:41;;;;;;;23.73;15.93;;;;;;;20.34;63.41;101878.53;5069648;28;20032;-62
2022/05/18 06:27:07;;;;;;;22.48;14.73;;;;;;;20.44;63.21;101882.88;5071224;28;20072;-63
2022/05/18 06:29:32;;;;;;;22.67;14.43;;;;;;;20.38;62.78;101883.13;5069467;28;20032;-62
2022/05/18 06:31:58;;;;;;;23.02;15.60;;;;;;;20.38;62.93;101876.66;5069675;28;20029;-62
2022/05/18 06:34:23;;;;;;;22.08;15.20;;;;;;;20.46;62.95;101898.22;5069086;28;20039;-63
2022/05/18 06:36:50;;;;;;;21.98;15.50;;;;;;;20.33;63.22;101882.53;5069590;28;20048;-62
2022/05/18 06:39:18;;;;;;;22.08;14.68;;;;;;;20.42;62.91;101895.28;5052850;28;20051;-62
2022/05/18 06:41:45;;;;;;;21.27;14.15;;;;;;;20.34;63.51;101884.97;5069181;28;20415;-63
2022/05/18 06:44:11;;;;;;;21.15;13.73;;;;;;;20.35;63.67;101883.81;5069287;28;20020;-62
2022/05/18 06:46:38;;;;;;;20.92;14.05;;;;;;;20.50;63.23;101906.81;5070420;28;20025;-62
2022/05/18 06:49:05;;;;;;;23.85;13.80;;;;;;;20.55;63.25;101917.81;5069287;28;20063;-62
2022/05/18 06:51:34;;;;;;;23.00;13.77;;;;;;;20.48;63.31;101897.88;5070693;28;20103;-60
2022/05/18 06:54:00;;;;;;;20.73;13.60;;;;;;;20.49;63.32;101899.53;5070762;28;20040;-62
2022/05/18 06:56:28;;;;;;;21.33;13.13;;;;;;;20.68;63.60;101922.28;5068918;28;20329;-62
2022/05/18 06:58:55;;;;;;;22.08;13.00;;;;;;;20.71;63.24;101921.56;5068839;28;20089;-62
2022/05/18 07:01:21;;;;;;;22.20;12.98;;;;;;;20.64;62.37;101901.66;5052289;28;20122;-62
2022/05/18 07:03:47;;;;;;;21.63;12.82;;;;;;;20.70;62.34;101900.25;5069084;28;20075;-62
2022/05/18 07:06:14;;;;;;;23.65;12.70;;;;;;;20.82;62.21;101913.53;5069330;28;20066;-62
2022/05/18 07:08:41;;;;;;;21.02;11.85;;;;;;;20.85;60.46;101910.00;5069452;28;20029;-62
2022/05/18 07:11:07;;;;;;;21.95;11.85;;;;;;;20.97;59.14;101922.44;5071025;28;20052;-63
2022/05/18 07:13:35;;;;;;;21.75;11.80;;;;;;;20.84;58.66;101910.38;5068590;28;20724;-62
2022/05/18 07:16:10;;;;;;;21.35;12.32;;;;;;;20.73;58.49;101910.81;5069422;28;20032;-62
2022/05/18 07:18:35;;;;;;;23.63;13.35;;;;;;;20.81;58.34;101930.75;5074491;28;20036;-62
2022/05/18 07:21:03;;;;;;;21.17;11.90;;;;;;;20.79;58.17;101933.91;5074725;28;20460;-60
2022/05/18 07:23:29;;;;;;;22.25;12.02;;;;;;;20.63;58.22;101914.06;5057285;28;20035;-61
2022/05/18 07:25:57;;;;;;;21.95;12.80;;;;;;;20.77;58.42;101952.31;5075008;28;20422;-60
2022/05/18 07:28:23;;;;;;;23.75;14.02;;;;;;;20.79;58.62;101952.75;5074080;28;20055;-63
2022/05/18 07:30:53;;;;;;;22.88;13.85;;;;;;;20.73;58.75;101949.34;5075011;28;20053;-62
2022/05/18 07:33:20;;;;;;;22.23;13.95;;;;;;;20.83;59.09;101951.72;5074437;28;20028;-62
2022/05/18 07:35:46;;;;;;;23.02;14.40;;;;;;;20.85;58.77;101952.19;5074130;28;20447;-62
2022/05/18 07:38:12;;;;;;;23.05;14.77;;;;;;;21.06;59.38;101962.53;5074178;28;20067;-62
2022/05/18 07:40:37;;;;;;;22.90;14.23;;;;;;;21.28;59.24;101958.41;5074021;28;20083;-61
2022/05/18 07:43:03;;;;;;;23.45;15.25;;;;;;;21.44;58.71;101952.88;5074017;28;20535;-62
2022/05/18 07:45:29;;;;;;;26.90;15.75;;;;;;;21.54;58.14;101948.75;5073927;28;20511;-62
2022/05/18 07:47:54;;;;;;;24.00;15.80;;;;;;;21.62;58.98;101950.66;5074022;28;20031;-61
2022/05/18 07:50:22;;;;;;;24.38;15.90;;;;;;;21.66;59.10;101951.56;5072786;28;20032;-62
2022/05/18 07:52:48;;;;;;;22.98;15.07;;;;;;;21.84;59.25;101956.91;5073963;28;20044;-62
2022/05/18 07:55:14;;;;;;;23.70;15.23;;;;;;;21.95;58.77;101952.41;5074240;28;20102;-61
2022/05/18 07:57:41;;;;;;;25.17;14.10;;;;;;;22.12;58.88;101961.72;5073620;28;20115;-61
2022/05/18 08:00:08;;;;;;;24.80;14.98;;;;;;;21.95;58.75;101941.16;5073754;28;20068;-62
2022/05/18 08:02:34;;;;;;;22.35;14.80;;;;;;;22.29;59.17;101955.78;5074256;28;20133;-62
2022/05/18 08:04:59;;;;;;;21.50;13.52;;;;;;;22.62;58.25;101961.50;5073908;28;20428;-62
2022/05/18 08:07:25;;;;;;;23.13;13.93;;;;;;;22.88;57.60;101958.97;5073764;28;20028;-62
2022/05/18 08:15:19;;;;;;;22.02;13.38;;;;;;;23.37;55.98;101959.75;5073616;28;20055;-62
2022/05/18 08:17:46;;;;;;;22.70;13.50;;;;;;;23.51;55.22;101965.75;5073966;28;20032;-62
2022/05/18 08:20:17;;;;;;;21.67;12.88;;;;;;;23.49;55.50;101967.28;5073781;28;20067;-63
2022/05/18 08:22:43;;;;;;;22.70;13.35;;;;;;;23.39;55.16;101959.38;5073834;28;20062;-62
2022/05/18 08:25:09;;;;;;;21.83;13.85;;;;;;;23.39;56.15;101965.03;5074289;28;20036;-62
2022/05/18 08:27:39;;;;;;;21.75;13.75;;;;;;;23.31;55.87;101955.59;5073384;28;20053;-62
2022/05/18 08:30:06;;;;;;;21.20;13.32;;;;;;;23.34;56.23;101966.13;5072310;28;20036;-62
2022/05/18 08:32:32;;;;;;;22.40;13.25;;;;;;;23.36;56.29;101960.94;5073345;28;20020;-61
2022/05/18 08:34:57;;;;;;;22.15;13.95;;;;;;;23.43;55.99;101963.91;5070712;28;20041;-62
2022/05/18 08:37:23;;;;;;;23.10;14.35;;;;;;;23.48;55.96;101954.34;5071667;28;20147;-61
2022/05/18 08:39:50;;;;;;;21.27;13.20;;;;;;;23.57;55.96;101959.78;5070424;28;20029;-61
2022/05/18 08:42:15;;;;;;;22.13;13.70;;;;;;;23.61;55.84;101953.03;5071993;28;20031;-62
2022/05/18 08:44:41;;;;;;;21.10;13.48;;;;;;;23.67;55.18;101965.66;5071633;28;20328;-61
2022/05/18 08:47:19;;;;;;;23.30;13.20;;;;;;;23.76;54.83;101967.47;5071674;28;20061;-61
2022/05/18 08:50:07;;;;;;;20.63;13.32;;;;;;;23.74;55.13;101962.19;5070136;28;20101;-62
2022/05/18 08:52:54;;;;;;;21.75;12.88;;;;;;;23.79;55.06;101973.22;5071794;28;20044;-61
2022/05/18 08:55:38;;;;;;;22.90;12.90;;;;;;;23.77;54.41;101975.59;5071707;28;20189;-62
2022/05/18 08:58:10;;;;;;;23.27;13.93;;;;;;;23.81;55.19;101970.81;5070285;28;20094;-62
2022/05/18 09:00:41;;;;;;;20.88;13.10;;;;;;;23.83;54.72;101973.28;5071819;28;20040;-62
2022/05/18 09:03:06;;;;;;;22.13;13.32;;;;;;;23.90;54.81;101970.59;5072146;28;20032;-61
2022/05/18 09:05:50;;;;;;;23.58;14.73;;;;;;;23.79;54.86;101972.38;5072334;28;20040;-62
2022/05/18 09:08:22;;;;;;;23.83;14.75;;;;;;;23.81;54.80;101976.47;5072085;28;20464;-62
2022/05/18 09:10:54;;;;;;;21.92;14.20;;;;;;;23.96;54.95;101983.28;5071860;28;20047;-61
2022/05/18 09:13:20;;;;;;;20.52;12.73;;;;;;;24.01;54.23;101984.19;5069994;28;20032;-61
2022/05/18 09:16:08;;;;;;;21.13;12.68;;;;;;;24.05;54.82;101983.06;5071521;28;20420;-62
2022/05/18 09:19:01;;;;;;;22.10;13.48;;;;;;;24.06;54.96;101983.88;5071460;28;20028;-60
2022/05/18 09:21:29;;;;;;;22.75;13.68;;;;;;;23.96;54.44;101974.78;5071759;28;20079;-61
2022/05/18 09:24:07;;;;;;;19.80;12.30;;;;;;;23.98;54.83;101963.13;5060183;28;20049;-63
2022/05/18 09:26:51;;;;;;;20.15;12.43;;;;;;;24.23;54.54;101962.81;5070307;28;20135;-60
2022/05/18 09:29:26;;;;;;;21.02;13.45;;;;;;;24.39;53.57;101974.03;5071600;28;20115;-60
2022/05/18 09:32:13;;;;;;;21.02;11.95;;;;;;;24.56;53.97;101975.56;5070935;28;20113;-62
2022/05/18 09:35:00;;;;;;;21.60;12.27;;;;;;;24.65;52.19;101973.31;5071411;28;20033;-62
2022/05/18 09:37:32;;;;;;;20.75;12.45;;;;;;;24.76;52.83;101960.19;5071096;28;20036;-60
2022/05/18 09:40:24;;;;;;;21.98;14.00;;;;;;;24.95;53.00;101974.66;5069370;28;20419;-60
2022/05/18 09:43:10;;;;;;;23.40;14.23;;;;;;;24.86;52.90;101974.88;5070871;28;20052;-60
2022/05/18 09:45:39;;;;;;;21.02;12.32;;;;;;;24.77;52.22;101983.66;5071274;28;20032;-61
2022/05/18 09:48:10;;;;;;;21.25;12.65;;;;;;;24.75;52.66;101971.88;5070366;28;20039;-61
2022/05/18 09:50:39;;;;;;;22.10;13.07;;;;;;;24.75;52.36;101971.88;5070704;28;20055;-61
2022/05/18 09:53:05;;;;;;;21.10;12.52;;;;;;;24.86;52.32;101974.88;5070580;28;20060;-61
2022/05/18 09:55:31;;;;;;;20.30;13.40;;;;;;;24.82;52.34;101974.81;5070442;28;20052;-61
2022/05/18 09:58:06;;;;;;;20.95;13.32;;;;;;;24.85;52.78;101976.91;5070597;28;20032;-61
2022/05/18 10:00:34;;;;;;;21.70;12.93;;;;;;;24.73;52.96;101968.59;5070641;28;20040;-61
2022/05/18 10:08:56;;;;;;;22.38;13.85;;;;;;;24.92;52.97;101973.41;5070241;28;20040;-61
2022/05/18 10:11:26;;;;;;;23.63;14.65;;;;;;;24.93;52.52;101966.53;5070365;28;20033;-62
2022/05/18 10:14:08;;;;;;;20.42;12.80;;;;;;;25.08;52.92;101978.88;5067201;28;20155;-61
2022/05/18 10:16:41;;;;;;;21.75;12.60;;;;;;;24.92;52.77;101987.53;5070669;28;20081;-61
2022/05/18 10:19:16;;;;;;;21.08;11.68;;;;;;;24.84;53.01;101977.31;5070419;28;20510;-61
2022/05/18 10:21:51;;;;;;;19.38;11.75;;;;;;;24.74;53.42;101958.94;5070148;28;20479;-60
2022/05/18 10:24:25;;;;;;;19.52;11.80;;;;;;;24.76;53.46;101956.53;5070851;28;20032;-61
2022/05/18 10:27:22;;;;;;;20.10;11.57;;;;;;;25.09;53.08;101969.19;5070352;28;20079;-61
2022/05/18 10:30:18;;;;;;;20.05;11.20;;;;;;;25.14;52.86;101971.72;5070200;28;20102;-61
2022/05/18 10:33:03;;;;;;;18.42;10.82;;;;;;;25.12;51.08;101965.63;5070586;28;20036;-62
2022/05/18 10:35:49;;;;;;;19.13;11.30;;;;;;;25.17;51.76;101967.31;5052226;28;20035;-61
2022/05/18 10:38:20;;;;;;;18.40;10.25;;;;;;;25.31;51.87;101973.22;5069827;28;20494;-60
2022/05/18 10:40:46;;;;;;;20.45;11.00;;;;;;;25.47;51.09;101973.06;5069870;28;20024;-62
2022/05/18 10:43:29;;;;;;;19.10;10.82;;;;;;;25.59;50.30;101989.03;5070260;28;20035;-62
2022/05/18 10:45:58;;;;;;;20.80;11.23;;;;;;;25.30;50.75;101965.06;5069731;28;20035;-61
2022/05/18 10:48:27;;;;;;;19.05;10.05;;;;;;;25.46;50.36;101964.94;5069430;28;20037;-61
2022/05/18 10:51:26;;;;;;;19.30;9.70;;;;;;;25.72;51.14;101968.94;5069780;28;20115;-60
2022/05/18 10:53:51;;;;;;;16.95;9.15;;;;;;;25.92;49.98;101955.44;5068571;28;20032;-61
2022/05/18 10:56:29;;;;;;;17.20;9.98;;;;;;;26.04;49.00;101957.19;5071963;28;20029;-60
2022/05/18 10:59:13;;;;;;;16.33;9.68;;;;;;;26.20;48.82;101957.81;5072143;28;20040;-60
2022/05/18 11:01:45;;;;;;;16.30;9.55;;;;;;;26.12;47.41;101953.28;5072646;28;20063;-61
2022/05/18 11:04:27;;;;;;;17.48;9.40;;;;;;;26.19;47.74;101958.22;5072687;28;20094;-58
2022/05/18 11:06:53;;;;;;;14.43;8.90;;;;;;;26.16;47.18;101960.63;5071858;28;20085;-59
2022/05/18 11:09:25;;;;;;;16.77;9.15;;;;;;;26.14;46.38;101962.22;5071412;28;20032;-60
2022/05/18 11:12:19;;;;;;;15.60;8.43;;;;;;;26.20;46.31;101963.47;5072093;28;20052;-60
2022/05/18 11:15:08;;;;;;;16.08;8.98;;;;;;;26.20;47.04;101960.66;5071976;28;20031;-61
2022/05/18 11:17:45;;;;;;;16.73;8.77;;;;;;;26.22;46.35;101957.41;5071494;28;20040;-61
2022/05/18 11:20:29;;;;;;;16.20;8.60;;;;;;;26.32;46.72;101968.06;5071115;28;20024;-61
2022/05/18 11:23:17;;;;;;;16.05;9.15;;;;;;;26.44;45.90;101961.31;5070112;28;20040;-61
2022/05/18 11:26:07;;;;;;;14.60;8.93;;;;;;;26.46;45.89;101959.72;5071249;28;20108;-60
2022/05/18 11:28:48;;;;;;;15.75;9.20;;;;;;;26.41;46.02;101959.25;5070208;28;20139;-61
2022/05/18 11:31:32;;;;;;;16.65;8.98;;;;;;;26.41;45.66;101959.25;5071332;28;20119;-61
2022/05/18 11:34:23;;;;;;;16.25;8.90;;;;;;;26.51;45.47;101952.03;5069773;28;20218;-60
2022/05/18 11:36:55;;;;;;;15.90;8.50;;;;;;;26.69;46.20;101924.66;5069431;28;20063;-60